createdAt,value
2022-08-17T00:01:27.471Z,95827.06
2022-08-17T00:03:53.473Z,95831.47
2022-08-17T00:06:26.599Z,95824.38
2022-08-17T00:08:57.322Z,95827.25
2022-08-17T00:11:36.704Z,95828.16
2022-08-17T00:14:08.810Z,95835.75
2022-08-17T00:16:50.464Z,95837.00
2022-08-17T00:19:24.629Z,95843.63
2022-08-17T00:22:00.015Z,95838.88
2022-08-17T00:24:39.014Z,95834.31
2022-08-17T00:27:04.848Z,95838.94
2022-08-17T00:29:30.733Z,95843.31
2022-08-17T00:31:56.583Z,95839.69
2022-08-17T00:34:24.464Z,95837.00
2022-08-17T00:36:53.738Z,95831.47
2022-08-17T00:39:19.547Z,95823.59
2022-08-17T00:41:45.374Z,95817.31
2022-08-17T00:44:11.417Z,95817.13
2022-08-17T00:46:40.257Z,95819.47
2022-08-17T00:49:08.924Z,95823.56
2022-08-17T00:51:45.883Z,95813.78
2022-08-17T00:54:20.754Z,95813.47
2022-08-17T00:57:06.352Z,95818.84
2022-08-17T00:59:38.193Z,95811.59
2022-08-17T01:02:07.961Z,95802.81
2022-08-17T01:04:35.476Z,95811.75
2022-08-17T01:07:02.802Z,95811.28
2022-08-17T01:09:28.689Z,95809.84
2022-08-17T01:11:54.499Z,95811.59
2022-08-17T01:14:21.673Z,95805.09
2022-08-17T01:16:53.720Z,95809.84
2022-08-17T01:19:30.689Z,95808.56
2022-08-17T01:22:05.700Z,95807.91
2022-08-17T01:24:33.698Z,95808.44
2022-08-17T01:27:00.297Z,95812.66
2022-08-17T01:29:30.025Z,95813.63
2022-08-17T01:31:58.999Z,95811.56
2022-08-17T01:34:32.769Z,95814.91
2022-08-17T01:37:09.748Z,95819.81
2022-08-17T01:39:43.948Z,95820.09
2022-08-17T01:42:22.667Z,95816.28
2022-08-17T01:44:54.159Z,95819.59
2022-08-17T01:47:20.069Z,95819.72
2022-08-17T01:49:45.874Z,95811.81
2022-08-17T01:52:12.684Z,95807.91
2022-08-17T01:54:42.633Z,95824.31
2022-08-17T01:57:09.208Z,95817.97
2022-08-17T01:59:35.979Z,95815.97
2022-08-17T02:02:04.073Z,95819.28
2022-08-17T02:04:31.188Z,95818.31
2022-08-17T02:06:57.622Z,95810.47
2022-08-17T02:09:26.199Z,95807.44
2022-08-17T02:11:57.743Z,95812.50
2022-08-17T02:14:24.358Z,95817.06
2022-08-17T02:16:51.228Z,95812.47
2022-08-17T02:19:17.092Z,95811.03
2022-08-17T02:21:46.461Z,95819.53
2022-08-17T02:24:58.944Z,95817.31
2022-08-17T02:27:05.644Z,95811.09
2022-08-17T02:29:31.768Z,95803.38
2022-08-17T02:31:57.838Z,95806.84
2022-08-17T02:34:25.495Z,95806.16
2022-08-17T02:36:52.657Z,95803.13
2022-08-17T02:39:19.162Z,95809.78
2022-08-17T02:41:45.283Z,95810.91
2022-08-17T02:44:11.457Z,95809.94
2022-08-17T02:46:37.399Z,95802.41
2022-08-17T02:49:04.395Z,95806.59
2022-08-17T02:51:32.137Z,95799.53
2022-08-17T02:54:35.725Z,95808.47
2022-08-17T02:56:43.877Z,95804.50
2022-08-17T02:59:09.679Z,95795.34
2022-08-17T03:01:35.579Z,95793.63
2022-08-17T03:04:01.613Z,95789.66
2022-08-17T03:06:28.494Z,95800.50
2022-08-17T03:08:54.344Z,95793.78
2022-08-17T03:11:20.119Z,95791.56
2022-08-17T03:13:45.982Z,95792.09
2022-08-17T03:16:11.776Z,95792.72
2022-08-17T03:18:37.694Z,95800.50
2022-08-17T03:21:04.588Z,95798.34
2022-08-17T03:23:31.645Z,95798.03
2022-08-17T03:25:59.083Z,95796.56
2022-08-17T03:28:27.473Z,95793.44
2022-08-17T03:30:53.679Z,95795.47
2022-08-17T03:33:19.980Z,95793.91
2022-08-17T03:35:46.602Z,95798.94
2022-08-17T03:38:15.049Z,95800.38
2022-08-17T03:40:57.565Z,95800.19
2022-08-17T03:43:27.208Z,95799.38
2022-08-17T03:46:28.691Z,95802.84
2022-08-17T03:49:16.055Z,95798.53
2022-08-17T03:52:00.414Z,95798.09
2022-08-17T03:54:44.973Z,95793.84
2022-08-17T03:57:11.677Z,95794.28
2022-08-17T03:59:38.232Z,95798.72
2022-08-17T04:02:12.268Z,95794.97
2022-08-17T04:04:38.789Z,95802.38
2022-08-17T04:07:06.696Z,95802.59
2022-08-17T04:09:32.547Z,95796.66
2022-08-17T04:12:02.342Z,95800.78
2022-08-17T04:14:35.518Z,95794.56
2022-08-17T04:17:05.267Z,95805.28
2022-08-17T04:19:31.088Z,95798.00
2022-08-17T04:21:59.951Z,95803.88
2022-08-17T04:24:26.614Z,95810.97
2022-08-17T04:26:54.672Z,95813.97
2022-08-17T04:29:20.872Z,95816.16
2022-08-17T04:31:47.284Z,95811.78
2022-08-17T04:34:13.176Z,95818.09
2022-08-17T04:36:38.975Z,95818.25
2022-08-17T04:39:04.814Z,95811.06
2022-08-17T04:41:49.187Z,95816.09
2022-08-17T04:44:15.607Z,95820.69
2022-08-17T04:47:01.475Z,95819.13
2022-08-17T04:49:27.521Z,95816.75
2022-08-17T04:51:56.251Z,95819.13
2022-08-17T04:54:22.878Z,95822.75
2022-08-17T04:56:48.934Z,95819.84
2022-08-17T04:59:20.828Z,95818.09
2022-08-17T05:01:49.135Z,95820.47
2022-08-17T05:04:33.779Z,95819.84
2022-08-17T05:07:01.442Z,95810.88
2022-08-17T05:09:27.434Z,95818.75
2022-08-17T05:11:53.238Z,95824.63
2022-08-17T05:14:21.569Z,95821.44
2022-08-17T05:16:59.043Z,95826.03
2022-08-17T05:19:26.797Z,95828.72
2022-08-17T05:21:52.827Z,95835.84
2022-08-17T05:24:42.673Z,95829.84
2022-08-17T05:27:06.049Z,95830.16
2022-08-17T05:29:35.271Z,95825.13
2022-08-17T05:32:39.479Z,95819.31
2022-08-17T05:34:59.443Z,95824.06
2022-08-17T05:37:25.266Z,95820.91
2022-08-17T05:39:52.686Z,95820.91
2022-08-17T05:42:19.108Z,95821.38
2022-08-17T05:44:44.963Z,95819.38
2022-08-17T05:47:10.767Z,95814.31
2022-08-17T05:49:36.669Z,95816.69
2022-08-17T05:52:14.312Z,95815.56
2022-08-17T05:54:54.208Z,95816.84
2022-08-17T05:57:33.347Z,95815.25
2022-08-17T06:00:11.118Z,95818.56
2022-08-17T06:03:01.258Z,95816.50
2022-08-17T06:05:38.954Z,95819.38
2022-08-17T06:08:34.558Z,95814.94
2022-08-17T06:11:22.685Z,95811.28
2022-08-17T06:14:24.686Z,95817.00
2022-08-17T06:16:57.794Z,95817.28
2022-08-17T06:19:41.676Z,95817.44
2022-08-17T06:22:12.137Z,95815.25
2022-08-17T06:24:44.004Z,95817.56
2022-08-17T06:27:29.572Z,95814.59
2022-08-17T06:30:01.350Z,95815.84
2022-08-17T06:32:28.047Z,95817.75
2022-08-17T06:34:54.525Z,95815.50
2022-08-17T06:37:51.049Z,95819.78
2022-08-17T06:40:36.343Z,95809.34
2022-08-17T06:43:07.967Z,95811.88
2022-08-17T06:45:40.973Z,95812.34
2022-08-17T06:48:24.076Z,95819.47
2022-08-17T06:51:19.110Z,95820.75
2022-08-17T06:53:52.453Z,95818.34
2022-08-17T06:56:54.555Z,95816.91
2022-08-17T06:59:53.203Z,95819.91
2022-08-17T07:02:53.623Z,95821.31
2022-08-17T07:05:22.960Z,95822.41
2022-08-17T07:08:34.993Z,95827.88
2022-08-17T07:11:06.116Z,95827.47
2022-08-17T07:13:53.751Z,95819.88
2022-08-17T07:16:42.560Z,95815.38
2022-08-17T07:19:10.997Z,95818.31
2022-08-17T07:22:00.216Z,95818.41
2022-08-17T07:24:30.280Z,95820.28
2022-08-17T07:27:26.795Z,95819.75
2022-08-17T07:29:57.131Z,95814.91
2022-08-17T07:32:46.580Z,95825.41
2022-08-17T07:35:21.311Z,95824.84
2022-08-17T07:37:53.336Z,95820.50
2022-08-17T07:40:27.035Z,95832.91
2022-08-17T07:43:01.758Z,95837.44
2022-08-17T07:45:49.139Z,95833.09
2022-08-17T07:48:26.026Z,95835.00
2022-08-17T07:50:54.837Z,95835.66
2022-08-17T07:53:24.335Z,95838.69
2022-08-17T07:55:52.816Z,95843.13
2022-08-17T07:58:22.793Z,95838.53
2022-08-17T08:01:08.449Z,95841.28
2022-08-17T08:03:41.842Z,95846.50
2022-08-17T08:06:20.169Z,95838.97
2022-08-17T08:08:52.331Z,95845.56
2022-08-17T08:11:35.831Z,95847.38
2022-08-17T08:14:21.828Z,95849.97
2022-08-17T08:17:04.698Z,95848.63
2022-08-17T08:19:32.408Z,95847.16
2022-08-17T08:22:23.117Z,95852.63
2022-08-17T08:25:07.343Z,95847.47
2022-08-17T08:27:52.242Z,95848.97
2022-08-17T08:30:20.838Z,95848.84
2022-08-17T08:32:58.933Z,95846.84
2022-08-17T08:35:40.991Z,95844.78
2022-08-17T08:39:03.974Z,95842.13
2022-08-17T08:41:49.172Z,95851.66
2022-08-17T08:44:21.373Z,95856.00
2022-08-17T08:47:35.407Z,95855.72
2022-08-17T08:50:37.555Z,95858.75
2022-08-17T08:53:10.679Z,95852.00
2022-08-17T08:56:02.342Z,95855.34
2022-08-17T08:58:31.759Z,95850.75
2022-08-17T09:01:17.722Z,95856.81
2022-08-17T09:04:21.444Z,95856.03
2022-08-17T09:07:04.346Z,95864.66
2022-08-17T09:09:44.895Z,95859.13
2022-08-17T09:12:24.087Z,95860.59
2022-08-17T09:15:21.132Z,95863.41
2022-08-17T09:18:14.918Z,95862.75
2022-08-17T09:20:52.736Z,95863.81
2022-08-17T09:23:33.459Z,95863.31
2022-08-17T09:26:03.347Z,95862.44
2022-08-17T09:28:44.087Z,95861.00
2022-08-17T09:31:16.011Z,95863.03
2022-08-17T09:33:44.988Z,95866.66
2022-08-17T09:36:47.235Z,95872.63
2022-08-17T09:39:29.910Z,95868.03
2022-08-17T09:42:09.951Z,95873.69
2022-08-17T09:44:40.703Z,95881.19
2022-08-17T09:47:19.137Z,95884.75
2022-08-17T09:49:56.182Z,95871.41
2022-08-17T09:52:28.598Z,95876.63
2022-08-17T09:54:56.613Z,95875.06
2022-08-17T09:57:31.334Z,95864.47
2022-08-17T10:00:15.682Z,95868.56
2022-08-17T10:03:08.843Z,95868.22
2022-08-17T10:05:56.583Z,95873.16
2022-08-17T10:08:31.885Z,95876.69
2022-08-17T10:11:45.585Z,95867.03
2022-08-17T10:14:37.395Z,95870.34
2022-08-17T10:17:17.985Z,95879.66
2022-08-17T10:20:01.517Z,95875.97
2022-08-17T10:23:05.680Z,95868.56
2022-08-17T10:26:13.407Z,95871.50
2022-08-17T10:28:51.989Z,95860.78
2022-08-17T10:31:40.925Z,95855.50
2022-08-17T10:34:22.538Z,95854.84
2022-08-17T10:37:09.081Z,95865.00
2022-08-17T10:39:59.442Z,95863.63
2022-08-17T10:42:49.627Z,95861.28
2022-08-17T10:45:25.484Z,95863.75
2022-08-17T10:48:04.642Z,95866.13
2022-08-17T10:50:49.778Z,95869.09
2022-08-17T10:53:30.744Z,95876.53
2022-08-17T10:56:18.094Z,95874.97
2022-08-17T10:58:58.537Z,95879.91
2022-08-17T11:01:33.378Z,95879.31
2022-08-17T11:04:25.083Z,95876.41
2022-08-17T11:07:05.393Z,95880.19
2022-08-17T11:09:34.297Z,95875.78
2022-08-17T11:12:24.861Z,95870.56
2022-08-17T11:14:57.214Z,95880.41
2022-08-17T11:18:00.878Z,95881.63
2022-08-17T11:21:01.606Z,95882.59
2022-08-17T11:23:54.745Z,95886.25
2022-08-17T11:26:32.755Z,95894.44
2022-08-17T11:29:02.935Z,95890.75
2022-08-17T11:31:39.004Z,95893.94
2022-08-17T11:34:25.532Z,95894.66
2022-08-17T11:37:17.920Z,95889.91
2022-08-17T11:40:14.232Z,95894.03
2022-08-17T11:43:08.869Z,95892.63
2022-08-17T11:45:45.632Z,95885.47
2022-08-17T11:48:53.324Z,95887.44
2022-08-17T11:51:41.302Z,95879.88
2022-08-17T11:54:34.465Z,95884.81
2022-08-17T11:57:26.294Z,95887.94
2022-08-17T12:00:09.565Z,95880.84
2022-08-17T12:02:46.959Z,95878.59
2022-08-17T12:05:16.936Z,95891.00
2022-08-17T12:07:48.311Z,95878.50
2022-08-17T12:10:20.824Z,95880.41
2022-08-17T12:12:49.526Z,95878.16
2022-08-17T12:15:20.355Z,95877.53
2022-08-17T12:17:54.311Z,95876.63
2022-08-17T12:20:31.858Z,95878.16
2022-08-17T12:23:04.184Z,95873.88
2022-08-17T12:25:35.758Z,95872.47
2022-08-17T12:28:06.003Z,95882.94
2022-08-17T12:30:34.765Z,95879.91
2022-08-17T12:33:00.792Z,95869.06
2022-08-17T12:35:33.824Z,95870.47
2022-08-17T12:38:00.989Z,95861.94
2022-08-17T12:40:31.804Z,95853.88
2022-08-17T12:43:00.815Z,95855.41
2022-08-17T12:45:32.339Z,95854.44
2022-08-17T12:48:07.961Z,95851.47
2022-08-17T12:50:40.914Z,95853.47
2022-08-17T12:53:24.078Z,95852.88
2022-08-17T12:55:51.286Z,95853.06
2022-08-17T12:58:27.296Z,95854.88
2022-08-17T13:01:15.885Z,95852.16
2022-08-17T13:03:51.649Z,95852.47
2022-08-17T13:06:32.935Z,95850.28
2022-08-17T13:09:10.906Z,95854.94
2022-08-17T13:11:47.196Z,95857.38
2022-08-17T13:14:17.550Z,95845.72
2022-08-17T13:16:55.273Z,95846.31
2022-08-17T13:19:39.897Z,95844.47
2022-08-17T13:22:10.427Z,95843.31
2022-08-17T13:24:38.142Z,95830.69
2022-08-17T13:27:07.911Z,95835.63
2022-08-17T13:29:38.058Z,95837.81
2022-08-17T13:32:04.231Z,95836.56
2022-08-17T13:34:35.405Z,95835.84
2022-08-17T13:37:29.581Z,95846.19
2022-08-17T13:39:55.349Z,95845.97
2022-08-17T13:42:32.336Z,95840.28
2022-08-17T13:44:59.061Z,95832.22
2022-08-17T13:47:25.901Z,95839.25
2022-08-17T13:49:52.730Z,95846.47
2022-08-17T13:52:40.101Z,95841.59
2022-08-17T13:55:16.119Z,95846.59
2022-08-17T13:57:46.112Z,95840.97
2022-08-17T14:00:29.423Z,95836.81
2022-08-17T14:03:01.148Z,95836.34
2022-08-17T14:05:28.292Z,95837.53
2022-08-17T14:07:57.310Z,95836.88
2022-08-17T14:10:24.533Z,95844.44
2022-08-17T14:12:52.013Z,95837.63
2022-08-17T14:15:23.794Z,95831.28
2022-08-17T14:18:09.615Z,95841.94
2022-08-17T14:20:35.600Z,95840.75
2022-08-17T14:23:01.461Z,95839.09
2022-08-17T14:25:28.986Z,95829.31
2022-08-17T14:27:55.816Z,95831.59
2022-08-17T14:30:24.802Z,95836.28
2022-08-17T14:32:51.416Z,95832.00
2022-08-17T14:35:18.548Z,95829.38
2022-08-17T14:37:45.068Z,95832.84
2022-08-17T14:40:12.953Z,95821.50
2022-08-17T14:42:41.780Z,95832.59
2022-08-17T14:45:33.016Z,95837.75
2022-08-17T14:47:55.504Z,95840.09
2022-08-17T14:50:21.794Z,95834.00
2022-08-17T14:52:48.583Z,95841.63
2022-08-17T14:55:20.008Z,95836.31
2022-08-17T14:57:46.101Z,95830.38
2022-08-17T15:00:12.986Z,95826.59
2022-08-17T15:02:54.585Z,95822.13
2022-08-17T15:05:31.918Z,95830.72
2022-08-17T15:07:59.097Z,95833.28
2022-08-17T15:10:26.034Z,95836.22
2022-08-17T15:12:51.987Z,95828.75
2022-08-17T15:15:17.981Z,95820.81
2022-08-17T15:17:45.922Z,95820.41
2022-08-17T15:20:21.390Z,95819.09
2022-08-17T15:22:54.159Z,95839.44
2022-08-17T15:25:21.702Z,95820.31
2022-08-17T15:27:48.204Z,95818.34
2022-08-17T15:30:15.052Z,95812.06
2022-08-17T15:32:45.866Z,95818.56
2022-08-17T15:35:17.868Z,95820.78
2022-08-17T15:37:44.180Z,95825.63
2022-08-17T15:40:11.057Z,95825.56
2022-08-17T15:42:39.711Z,95820.44
2022-08-17T15:45:09.746Z,95825.56
2022-08-17T15:47:36.381Z,95813.03
2022-08-17T15:50:05.620Z,95815.75
2022-08-17T15:52:37.206Z,95824.72
2022-08-17T15:55:05.071Z,95829.03
2022-08-17T15:57:31.210Z,95831.31
2022-08-17T15:59:58.650Z,95827.34
2022-08-17T16:03:45.352Z,95827.41
2022-08-17T16:05:24.704Z,95831.25
2022-08-17T16:07:51.448Z,95822.91
2022-08-17T16:10:19.174Z,95828.66
2022-08-17T16:12:47.261Z,95837.66
2022-08-17T16:15:14.095Z,95839.94
2022-08-17T16:17:42.909Z,95836.44
2022-08-17T16:20:20.134Z,95835.41
2022-08-17T16:22:48.177Z,95839.59
2022-08-17T16:25:18.481Z,95843.59
2022-08-17T16:27:45.985Z,95851.03
2022-08-17T16:30:17.335Z,95844.00
2022-08-17T16:32:44.183Z,95845.50
2022-08-17T16:35:11.826Z,95844.50
2022-08-17T16:37:39.617Z,95836.81
2022-08-17T16:40:08.187Z,95833.59
2022-08-17T16:42:36.321Z,95839.06
2022-08-17T16:45:09.938Z,95847.97
2022-08-17T16:47:36.012Z,95842.00
2022-08-17T16:50:03.824Z,95857.78
2022-08-17T16:52:32.832Z,95858.75
2022-08-17T16:55:01.755Z,95860.34
2022-08-17T16:57:28.986Z,95860.13
2022-08-17T16:59:55.276Z,95856.13
2022-08-17T17:02:33.674Z,95858.00
2022-08-17T17:05:15.224Z,95859.59
2022-08-17T17:07:57.330Z,95865.53
2022-08-17T17:10:31.525Z,95876.19
2022-08-17T17:13:03.095Z,95878.06
2022-08-17T17:15:45.599Z,95874.97
2022-08-17T17:18:13.966Z,95876.91
2022-08-17T17:20:47.552Z,95871.63
2022-08-17T17:23:24.924Z,95880.34
2022-08-17T17:25:50.683Z,95879.97
2022-08-17T17:28:26.878Z,95870.34
2022-08-17T17:31:04.979Z,95871.97
2022-08-17T17:33:42.762Z,95868.13
2022-08-17T17:36:33.850Z,95879.06
2022-08-17T17:39:04.759Z,95872.25
2022-08-17T17:41:41.062Z,95884.81
2022-08-17T17:44:16.261Z,95885.00
2022-08-17T17:46:52.369Z,95893.34
2022-08-17T17:49:18.358Z,95891.72
2022-08-17T17:52:18.545Z,95894.78
2022-08-17T17:54:45.143Z,95895.22
2022-08-17T17:57:25.004Z,95893.06
2022-08-17T17:59:58.341Z,95902.94
2022-08-17T18:02:52.004Z,95905.91
2022-08-17T18:05:36.722Z,95910.16
2022-08-17T18:08:32.287Z,95914.00
2022-08-17T18:11:11.906Z,95923.16
2022-08-17T18:13:49.370Z,95910.00
2022-08-17T18:16:15.764Z,95914.03
2022-08-17T18:18:45.390Z,95912.97
2022-08-17T18:21:18.909Z,95923.38
2022-08-17T18:23:52.505Z,95931.25
2022-08-17T18:26:33.926Z,95925.34
2022-08-17T18:29:06.454Z,95928.38
2022-08-17T18:31:32.356Z,95927.25
2022-08-17T18:34:46.733Z,95924.63
2022-08-17T18:37:30.839Z,95928.38
2022-08-17T18:39:56.753Z,95927.63
2022-08-17T18:42:28.345Z,95929.28
2022-08-17T18:44:55.753Z,95935.59
2022-08-17T18:47:27.068Z,95938.03
2022-08-17T18:49:57.509Z,95940.09
2022-08-17T18:52:32.284Z,95939.00
2022-08-17T18:55:12.206Z,95947.38
2022-08-17T18:57:42.404Z,95947.84
2022-08-17T19:00:16.249Z,95945.97
2022-08-17T19:03:01.061Z,95953.13
2022-08-17T19:05:43.157Z,95961.97
2022-08-17T19:08:18.113Z,95965.75
2022-08-17T19:10:47.370Z,95966.06
2022-08-17T19:13:24.683Z,95966.22
2022-08-17T19:16:11.740Z,95964.03
2022-08-17T19:19:05.735Z,95973.03
2022-08-17T19:21:37.206Z,95972.84
2022-08-17T19:24:20.808Z,95975.69
2022-08-17T19:26:57.953Z,95974.59
2022-08-17T19:29:38.655Z,95983.59
2022-08-17T19:32:08.421Z,95987.53
2022-08-17T19:34:36.595Z,95982.97
2022-08-17T19:37:11.809Z,95973.31
2022-08-17T19:39:57.200Z,95971.25
2022-08-17T19:42:39.770Z,95973.16
2022-08-17T19:45:28.283Z,95980.75
2022-08-17T19:48:24.452Z,95968.41
2022-08-17T19:50:59.898Z,95976.16
2022-08-17T19:53:47.516Z,95982.47
2022-08-17T19:56:20.879Z,95981.34
2022-08-17T19:59:20.361Z,95981.66
2022-08-17T20:02:19.975Z,95981.03
2022-08-17T20:04:49.707Z,95990.31
2022-08-17T20:07:24.683Z,96002.94
2022-08-17T20:10:04.943Z,96002.00
2022-08-17T20:12:35.049Z,96003.38
2022-08-17T20:15:17.354Z,96008.34
2022-08-17T20:17:46.229Z,96002.28
2022-08-17T20:20:32.829Z,96006.97
2022-08-17T20:23:09.759Z,95990.97
2022-08-17T20:25:47.157Z,96004.16
2022-08-17T20:28:23.605Z,95990.63
2022-08-17T20:30:50.545Z,95996.22
2022-08-17T20:33:34.014Z,95994.34
2022-08-17T20:36:23.563Z,95995.59
2022-08-17T20:38:52.364Z,95991.66
2022-08-17T20:41:24.197Z,95990.69
2022-08-17T20:44:03.966Z,95991.25
2022-08-17T20:46:35.745Z,95997.66
2022-08-17T20:49:10.358Z,95998.78
2022-08-17T20:52:00.912Z,95992.47
2022-08-17T20:54:42.034Z,95991.84
2022-08-17T20:57:28.640Z,95995.72
2022-08-17T21:00:04.693Z,96003.28
2022-08-17T21:02:32.112Z,95996.03
2022-08-17T21:05:07.218Z,96000.16
2022-08-17T21:07:42.650Z,95989.13
2022-08-17T21:10:13.163Z,95990.50
2022-08-17T21:12:42.518Z,95978.84
2022-08-17T21:15:34.199Z,95995.31
2022-08-17T21:18:28.147Z,95984.13
2022-08-17T21:21:25.586Z,95990.69
2022-08-17T21:23:57.250Z,95987.69
2022-08-17T21:26:50.781Z,95992.56
2022-08-17T21:29:31.779Z,95997.34
2022-08-17T21:31:58.892Z,95996.66
2022-08-17T21:34:32.346Z,96003.84
2022-08-17T21:37:23.538Z,96010.53
2022-08-17T21:40:09.897Z,96013.22
2022-08-17T21:42:43.357Z,96015.00
2022-08-17T21:45:11.237Z,96020.25
2022-08-17T21:47:42.679Z,96027.78
2022-08-17T21:50:23.554Z,96035.63
2022-08-17T21:52:53.305Z,96033.72
2022-08-17T21:55:27.520Z,96035.19
2022-08-17T21:58:14.034Z,96047.09
2022-08-17T22:00:43.360Z,96036.09
2022-08-17T22:03:22.946Z,96032.34
2022-08-17T22:05:50.535Z,96035.63
2022-08-17T22:08:23.525Z,96029.34
2022-08-17T22:10:50.663Z,96033.50
2022-08-17T22:13:17.501Z,96023.00
2022-08-17T22:16:27.940Z,96030.38
2022-08-17T22:18:56.929Z,96026.75
2022-08-17T22:21:25.376Z,96023.13
2022-08-17T22:24:03.812Z,96030.66
2022-08-17T22:27:06.931Z,96040.66
2022-08-17T22:29:53.339Z,96049.03
2022-08-17T22:32:44.862Z,96053.78
2022-08-17T22:35:35.028Z,96058.53
2022-08-17T22:38:19.328Z,96057.38
2022-08-17T22:40:49.058Z,96056.59
2022-08-17T22:43:20.490Z,96063.94
2022-08-17T22:45:55.124Z,96061.75
2022-08-17T22:48:27.145Z,96068.00
2022-08-17T22:51:03.911Z,96064.06
2022-08-17T22:54:04.785Z,96062.38
2022-08-17T22:56:49.403Z,96055.84
2022-08-17T22:59:51.624Z,96054.72
2022-08-17T23:02:26.230Z,96051.16
2022-08-17T23:05:12.313Z,96052.25
2022-08-17T23:07:39.884Z,96047.69
2022-08-17T23:10:09.009Z,96044.63
2022-08-17T23:12:38.849Z,96042.81
2022-08-17T23:15:10.526Z,96041.22
2022-08-17T23:17:37.715Z,96037.38
2022-08-17T23:20:08.459Z,96034.31
2022-08-17T23:22:36.846Z,96035.63
2022-08-17T23:25:04.347Z,96030.25
2022-08-17T23:27:31.065Z,96038.94
2022-08-17T23:29:57.734Z,96036.66
2022-08-17T23:32:24.694Z,96036.66
2022-08-17T23:34:50.562Z,96034.31
2022-08-17T23:37:18.251Z,96040.41
2022-08-17T23:39:44.705Z,96038.66
2022-08-17T23:42:14.191Z,96036.22
2022-08-17T23:44:42.859Z,96053.66
2022-08-17T23:47:09.864Z,96046.13
2022-08-17T23:49:36.009Z,96049.75
2022-08-17T23:52:06.230Z,96046.19
2022-08-17T23:54:42.797Z,96043.88
2022-08-17T23:57:12.031Z,96049.78
2022-08-17T23:59:38.683Z,96052.13
